Estación Meteorológica Peña el Pijo (Robertgarden) [ 02/03/23 04:08:40 CET ]

Fecha Hora Presion(HPa) Temp (°C) Humedad % Rocio (°C) Viento ( m/s) Direccion Lluvia 1Hora(mm) Lluvia 24H(mm) LLuvia Total(mm)
2010-Dec-19 01:01:13 992.300 5.8 94 4.9       4.14 16.57
2010-Dec-19 02:04:08 991.800 5.8 94 4.9       4.14 16.57
2010-Dec-19 03:01:16 991.500 5.0 94 4.1       4.14 16.57
2010-Dec-19 04:01:12 991.800 4.6 94 3.7       3.62 16.57
2010-Dec-19 05:01:19 991.300 4.7 95 4.0       3.10 16.57
2010-Dec-19 06:01:18 990.500 4.9 95 4.2       3.10 16.57
2010-Dec-19 07:01:13 990.900 5.0 95 4.2       2.59 16.57
2010-Dec-19 08:01:16 991.300 5.3 95 4.5       2.59 16.57
2010-Dec-19 09:01:12 991.700 5.4 95 4.7       2.59 16.57
2010-Dec-19 10:01:17 992.400 6.2 95 5.5       2.59 16.57
2010-Dec-19 11:01:13 993.000 8.3 96 7.7       2.59 16.57
2010-Dec-19 12:01:12 993.200 9.9 96 9.3       2.07 16.57
2010-Dec-19 13:01:11 993.600 10.3 94 9.3       2.07 16.57
2010-Dec-19 14:01:12 994.000 11.1 91 9.7       2.07 16.57
2010-Dec-19 15:01:11 994.700 10.7 89 8.9       2.07 16.57
2010-Dec-19 16:01:14 996.000 10.9 89 9.1       2.07 16.57
2010-Dec-19 17:01:12 997.400 9.6 89 7.9       2.07 16.57
2010-Dec-19 18:01:12 998.200 9.1 89 7.4       1.55 16.57
2010-Dec-19 19:01:12 999.500 8.6 88 6.7         16.57
2010-Dec-19 20:01:11 1000.300 7.6 88 5.8         16.57
2010-Dec-19 21:01:16 1001.800 7.8 83 5.1 1.9 SE     16.57
2010-Dec-19 22:01:12 1001.600 6.4 81 3.4         16.57
2010-Dec-19 23:01:13 1002.200 5.9 81 2.9         16.57

Temperatura Máxima:11°    Temperatura Mínima:
Presión Máxima:1002.200 Hpa    Presión Mínima:990.500 Hpa


Volver